createdAt,value
2023-05-07T00:01:26.502Z,101476.38
2023-05-07T00:06:23.154Z,101484.97
2023-05-07T00:11:20.199Z,101493.72
2023-05-07T00:16:17.895Z,101484.88
2023-05-07T00:21:14.631Z,101498.69
2023-05-07T00:26:11.504Z,101500.50
2023-05-07T00:31:09.854Z,101508.41
2023-05-07T00:36:07.499Z,101508.47
2023-05-07T00:41:04.135Z,101509.78
2023-05-07T00:46:02.206Z,101512.25
2023-05-07T00:50:58.822Z,101513.81
2023-05-07T00:55:56.503Z,101519.91
2023-05-07T01:00:53.539Z,101517.13
2023-05-07T01:05:50.842Z,101518.69
2023-05-07T01:10:47.947Z,101518.78
2023-05-07T01:15:48.353Z,101521.44
2023-05-07T01:20:45.594Z,101510.88
2023-05-07T01:25:42.890Z,101503.88
2023-05-07T01:30:43.536Z,101506.19
2023-05-07T01:35:41.928Z,101504.53
2023-05-07T01:40:39.202Z,101511.53
2023-05-07T01:45:36.806Z,101506.41
2023-05-07T01:50:34.541Z,101499.03
2023-05-07T01:55:31.253Z,101492.88
2023-05-07T02:00:29.300Z,101488.66
2023-05-07T02:05:26.642Z,101473.00
2023-05-07T02:10:31.803Z,101471.19
2023-05-07T02:15:29.321Z,101470.53
2023-05-07T02:20:28.174Z,101470.22
2023-05-07T02:25:24.767Z,101464.63
2023-05-07T02:30:22.326Z,101462.81
2023-05-07T02:35:22.147Z,101461.94
2023-05-07T02:40:19.628Z,101457.50
2023-05-07T02:45:16.210Z,101456.56
2023-05-07T02:50:14.444Z,101470.84
2023-05-07T02:55:11.482Z,101461.53
2023-05-07T03:00:15.343Z,101471.59
2023-05-07T03:05:18.758Z,101479.72
2023-05-07T03:10:18.921Z,101485.19
2023-05-07T03:15:16.354Z,101486.81
2023-05-07T03:20:13.619Z,101491.13
2023-05-07T03:25:11.608Z,101499.38
2023-05-07T03:30:09.335Z,101499.38
2023-05-07T03:35:07.389Z,101498.44
2023-05-07T03:40:04.815Z,101511.44
2023-05-07T03:45:06.705Z,101507.13
2023-05-07T03:50:05.431Z,101510.22
2023-05-07T03:55:04.832Z,101511.34
2023-05-07T04:00:06.015Z,101505.97
2023-05-07T04:05:06.153Z,101510.59
2023-05-07T04:10:04.631Z,101506.69
2023-05-07T04:15:01.832Z,101517.25
2023-05-07T04:19:58.599Z,101513.31
2023-05-07T04:24:56.625Z,101521.06
2023-05-07T04:29:56.151Z,101532.09
2023-05-07T04:34:53.177Z,101546.47
2023-05-07T04:39:50.156Z,101547.69
2023-05-07T04:44:47.355Z,101541.94
2023-05-07T04:49:44.723Z,101559.00
2023-05-07T04:54:42.458Z,101554.06
2023-05-07T04:59:39.579Z,101556.09
2023-05-07T05:04:37.185Z,101557.09
2023-05-07T05:09:34.875Z,101563.81
2023-05-07T05:14:31.485Z,101571.88
2023-05-07T05:19:28.650Z,101566.63
2023-05-07T05:24:25.372Z,101559.16
2023-05-07T05:29:22.920Z,101548.50
2023-05-07T05:34:20.424Z,101553.94
2023-05-07T05:39:18.276Z,101564.81
2023-05-07T05:44:15.389Z,101558.59
2023-05-07T05:49:13.831Z,101547.13
2023-05-07T05:54:11.197Z,101559.94
2023-05-07T05:59:07.900Z,101562.03
2023-05-07T06:04:04.895Z,101559.53
2023-05-07T06:09:02.334Z,101554.88
2023-05-07T06:14:06.392Z,101558.16
2023-05-07T06:19:03.511Z,101563.38
2023-05-07T06:24:00.148Z,101554.81
2023-05-07T06:28:57.465Z,101554.81
2023-05-07T06:33:55.735Z,101552.66
2023-05-07T06:38:55.247Z,101552.75
2023-05-07T06:43:52.002Z,101558.47
2023-05-07T06:49:01.357Z,101555.47
2023-05-07T06:53:59.469Z,101562.69
2023-05-07T06:58:56.173Z,101550.69
2023-05-07T07:03:52.963Z,101560.81
2023-05-07T07:08:52.186Z,101552.63
2023-05-07T07:13:50.993Z,101560.63
2023-05-07T07:18:47.837Z,101549.50
2023-05-07T07:23:44.503Z,101554.88
2023-05-07T07:28:45.735Z,101555.00
2023-05-07T07:33:45.284Z,101556.56
2023-05-07T07:38:42.346Z,101555.41
2023-05-07T07:43:39.360Z,101555.63
2023-05-07T07:48:37.506Z,101556.84
2023-05-07T07:53:34.784Z,101549.59
2023-05-07T07:58:33.185Z,101546.50
2023-05-07T08:03:32.811Z,101556.25
2023-05-07T08:08:31.098Z,101552.19
2023-05-07T08:13:28.398Z,101552.91
2023-05-07T08:18:25.810Z,101550.69
2023-05-07T08:23:23.815Z,101551.22
2023-05-07T08:28:21.821Z,101541.38
2023-05-07T08:33:18.976Z,101546.78
2023-05-07T08:38:15.901Z,101543.81
2023-05-07T08:43:13.727Z,101543.34
2023-05-07T08:48:15.709Z,101542.00
2023-05-07T08:53:14.608Z,101510.94
2023-05-07T08:58:12.141Z,101513.59
2023-05-07T09:03:13.089Z,101509.69
2023-05-07T09:08:15.517Z,101507.03
2023-05-07T09:13:14.886Z,101510.28
2023-05-07T09:18:12.896Z,101501.25
2023-05-07T09:23:10.416Z,101499.50
2023-05-07T09:28:09.846Z,101496.09
2023-05-07T09:33:06.680Z,101481.38
2023-05-07T09:38:07.278Z,101477.44
2023-05-07T09:43:11.160Z,101483.31
2023-05-07T09:48:09.917Z,101479.75
2023-05-07T09:53:10.720Z,101461.59
2023-05-07T09:58:09.289Z,101466.59
2023-05-07T10:03:07.316Z,101464.25
2023-05-07T10:08:13.693Z,101453.00
2023-05-07T10:13:11.965Z,101460.53
2023-05-07T10:18:14.650Z,101456.88
2023-05-07T10:23:14.486Z,101454.72
2023-05-07T10:28:14.769Z,101439.88
2023-05-07T10:33:16.381Z,101437.53
2023-05-07T10:38:14.619Z,101426.09
2023-05-07T10:43:14.066Z,101435.31
2023-05-07T10:48:29.539Z,101438.50
2023-05-07T10:53:39.268Z,101438.31
2023-05-07T10:58:48.329Z,101422.41
2023-05-07T11:04:07.992Z,101420.41
2023-05-07T11:09:05.513Z,101407.19
2023-05-07T11:14:38.171Z,101403.81
2023-05-07T11:19:51.708Z,101402.38
2023-05-07T11:25:00.157Z,101407.53
2023-05-07T11:29:57.106Z,101400.63
2023-05-07T11:34:54.073Z,101404.13
2023-05-07T11:39:54.823Z,101406.25
2023-05-07T11:44:52.105Z,101405.56
2023-05-07T11:49:49.148Z,101394.97
2023-05-07T11:54:49.877Z,101388.47
2023-05-07T11:59:47.963Z,101375.28
2023-05-07T12:04:45.625Z,101372.16
2023-05-07T12:09:42.535Z,101373.75
2023-05-07T12:14:40.291Z,101363.91
2023-05-07T12:19:37.551Z,101360.81
2023-05-07T12:24:44.585Z,101359.91
2023-05-07T12:29:46.764Z,101352.19
2023-05-07T12:34:45.274Z,101344.81
2023-05-07T12:39:45.956Z,101347.38
2023-05-07T12:44:46.023Z,101343.78
2023-05-07T12:49:42.970Z,101353.50
2023-05-07T12:54:39.526Z,101344.03
2023-05-07T12:59:37.306Z,101327.72
2023-05-07T13:04:34.083Z,101334.94
2023-05-07T13:09:31.639Z,101327.25
2023-05-07T13:14:28.224Z,101328.31
2023-05-07T13:19:25.484Z,101313.00
2023-05-07T13:24:22.083Z,101305.44
2023-05-07T13:29:18.712Z,101293.75
2023-05-07T13:34:15.303Z,101303.09
2023-05-07T13:39:12.659Z,101300.41
2023-05-07T13:44:09.195Z,101292.22
2023-05-07T13:49:06.014Z,101304.41
2023-05-07T13:54:03.358Z,101292.84
2023-05-07T13:59:01.133Z,101310.19
2023-05-07T14:04:00.760Z,101309.06
2023-05-07T14:08:58.497Z,101312.94
2023-05-07T14:13:55.095Z,101309.88
2023-05-07T14:18:52.316Z,101312.81
2023-05-07T14:23:49.238Z,101312.25
2023-05-07T14:28:47.830Z,101304.66
2023-05-07T14:33:44.475Z,101289.75
2023-05-07T14:38:42.180Z,101296.09
2023-05-07T14:43:38.863Z,101296.13
2023-05-07T14:48:35.495Z,101296.00
2023-05-07T14:53:32.441Z,101300.78
2023-05-07T14:58:29.732Z,101308.38
2023-05-07T15:03:26.463Z,101298.09
2023-05-07T15:08:23.247Z,101294.66
2023-05-07T15:13:23.264Z,101289.16
2023-05-07T15:18:22.836Z,101291.97
2023-05-07T15:23:19.955Z,101286.34
2023-05-07T15:28:19.006Z,101283.16
2023-05-07T15:33:15.866Z,101276.09
2023-05-07T15:38:13.773Z,101268.19
2023-05-07T15:43:11.055Z,101271.81
2023-05-07T15:48:08.201Z,101276.09
2023-05-07T15:53:05.165Z,101272.47
2023-05-07T15:58:04.050Z,101273.97
2023-05-07T16:03:00.693Z,101272.84
2023-05-07T16:07:58.129Z,101276.38
2023-05-07T16:12:55.006Z,101275.00
2023-05-07T16:17:57.292Z,101269.94
2023-05-07T16:22:53.974Z,101269.25
2023-05-07T16:27:50.985Z,101270.44
2023-05-07T16:32:47.687Z,101265.50
2023-05-07T16:37:45.011Z,101261.19
2023-05-07T16:42:41.670Z,101263.91
2023-05-07T16:47:38.468Z,101264.94
2023-05-07T16:52:35.006Z,101262.50
2023-05-07T16:57:32.340Z,101265.19
2023-05-07T17:02:29.104Z,101265.69
2023-05-07T17:07:26.355Z,101266.13
2023-05-07T17:12:23.011Z,101257.50
2023-05-07T17:17:20.285Z,101254.28
2023-05-07T17:22:17.009Z,101264.84
2023-05-07T17:27:13.607Z,101256.50
2023-05-07T17:32:10.330Z,101263.00
2023-05-07T17:37:07.740Z,101273.56
2023-05-07T17:42:04.765Z,101271.53
2023-05-07T17:47:01.873Z,101263.84
2023-05-07T17:51:58.595Z,101282.56
2023-05-07T17:56:55.837Z,101286.19
2023-05-07T18:01:52.664Z,101293.09
2023-05-07T18:06:49.566Z,101294.16
2023-05-07T18:11:46.155Z,101298.72
2023-05-07T18:16:43.573Z,101302.00
2023-05-07T18:21:40.508Z,101309.66
2023-05-07T18:26:37.145Z,101314.47
2023-05-07T18:31:36.783Z,101319.28
2023-05-07T18:36:35.262Z,101315.03
2023-05-07T18:41:32.230Z,101318.06
2023-05-07T18:46:29.104Z,101321.50
2023-05-07T18:51:26.842Z,101332.88
2023-05-07T18:56:24.130Z,101336.53
2023-05-07T19:01:20.859Z,101330.56
2023-05-07T19:06:17.623Z,101319.34
2023-05-07T19:11:14.218Z,101324.91
2023-05-07T19:16:12.980Z,101324.16
2023-05-07T19:21:09.892Z,101327.16
2023-05-07T19:26:06.628Z,101334.69
2023-05-07T19:31:03.116Z,101323.72
2023-05-07T19:36:00.364Z,101331.41
2023-05-07T19:40:57.233Z,101339.63
2023-05-07T19:45:54.396Z,101327.69
2023-05-07T19:50:51.049Z,101335.66
2023-05-07T19:55:48.424Z,101339.72
2023-05-07T20:00:44.977Z,101341.34
2023-05-07T20:05:41.659Z,101343.69
2023-05-07T20:10:38.192Z,101336.53
2023-05-07T20:15:36.826Z,101327.13
2023-05-07T20:20:33.627Z,101315.38
2023-05-07T20:25:30.376Z,101330.66
2023-05-07T20:30:27.597Z,101336.25
2023-05-07T20:35:24.885Z,101348.75
2023-05-07T20:40:21.404Z,101350.94
2023-05-07T20:45:18.144Z,101342.69
2023-05-07T20:50:15.066Z,101350.25
2023-05-07T20:55:12.669Z,101348.38
2023-05-07T21:00:09.732Z,101349.22
2023-05-07T21:05:06.711Z,101352.56
2023-05-07T21:10:03.476Z,101357.69
2023-05-07T21:15:00.741Z,101352.78
2023-05-07T21:19:57.270Z,101349.28
2023-05-07T21:24:53.773Z,101351.03
2023-05-07T21:29:50.358Z,101350.88
2023-05-07T21:34:47.561Z,101351.34
2023-05-07T21:39:44.460Z,101345.91
2023-05-07T21:44:40.966Z,101345.13
2023-05-07T21:49:37.529Z,101339.88
2023-05-07T21:54:34.798Z,101341.28
2023-05-07T21:59:31.326Z,101344.50
2023-05-07T22:04:27.923Z,101343.72
2023-05-07T22:09:24.409Z,101342.53
2023-05-07T22:14:21.731Z,101331.75
2023-05-07T22:19:18.416Z,101353.78
2023-05-07T22:24:15.101Z,101363.59
2023-05-07T22:29:11.679Z,101351.72
2023-05-07T22:34:08.925Z,101339.28
2023-05-07T22:39:07.082Z,101329.09
2023-05-07T22:44:03.753Z,101331.94
2023-05-07T22:49:00.450Z,101340.75
2023-05-07T22:53:57.719Z,101333.59
2023-05-07T22:58:54.330Z,101330.94
2023-05-07T23:03:51.223Z,101338.56
2023-05-07T23:08:47.831Z,101329.28
2023-05-07T23:13:45.241Z,101331.28
2023-05-07T23:18:41.796Z,101342.13
2023-05-07T23:23:38.316Z,101340.97
2023-05-07T23:28:34.908Z,101330.00
2023-05-07T23:33:32.060Z,101322.19
2023-05-07T23:38:28.662Z,101316.63
2023-05-07T23:43:25.213Z,101312.94
2023-05-07T23:48:21.843Z,101311.44
2023-05-07T23:53:19.340Z,101313.09
2023-05-07T23:58:15.989Z,101304.78
